sensor_id;sensor_type;location;lat;lon;timestamp;temperature;humidity
68248;SHT30;55064;49.636;12.164;2023-12-04T00:01:46;-7.27;91.81
68248;SHT30;55064;49.636;12.164;2023-12-04T00:04:12;-7.29;91.42
68248;SHT30;55064;49.636;12.164;2023-12-04T00:06:37;-7.34;91.47
68248;SHT30;55064;49.636;12.164;2023-12-04T00:09:03;-7.46;91.40
68248;SHT30;55064;49.636;12.164;2023-12-04T00:11:28;-7.59;91.84
68248;SHT30;55064;49.636;12.164;2023-12-04T00:13:53;-7.62;92.17
68248;SHT30;55064;49.636;12.164;2023-12-04T00:16:19;-7.60;92.54
68248;SHT30;55064;49.636;12.164;2023-12-04T00:18:44;-7.63;92.33
68248;SHT30;55064;49.636;12.164;2023-12-04T00:21:09;-7.60;92.51
68248;SHT30;55064;49.636;12.164;2023-12-04T00:23:35;-7.62;92.60
68248;SHT30;55064;49.636;12.164;2023-12-04T00:26:00;-7.67;92.54
68248;SHT30;55064;49.636;12.164;2023-12-04T00:28:26;-7.74;92.54
68248;SHT30;55064;49.636;12.164;2023-12-04T00:30:53;-7.70;92.48
68248;SHT30;55064;49.636;12.164;2023-12-04T00:33:19;-7.76;92.35
68248;SHT30;55064;49.636;12.164;2023-12-04T00:35:44;-7.80;92.09
68248;SHT30;55064;49.636;12.164;2023-12-04T00:38:10;-7.74;92.51
68248;SHT30;55064;49.636;12.164;2023-12-04T00:40:35;-7.72;92.58
68248;SHT30;55064;49.636;12.164;2023-12-04T00:43:00;-7.82;91.96
68248;SHT30;55064;49.636;12.164;2023-12-04T00:45:26;-7.86;91.80
68248;SHT30;55064;49.636;12.164;2023-12-04T00:47:51;-7.84;91.72
68248;SHT30;55064;49.636;12.164;2023-12-04T00:50:16;-7.89;91.76
68248;SHT30;55064;49.636;12.164;2023-12-04T00:52:42;-7.93;91.44
68248;SHT30;55064;49.636;12.164;2023-12-04T00:55:08;-7.89;91.38
68248;SHT30;55064;49.636;12.164;2023-12-04T00:57:33;-7.94;91.27
68248;SHT30;55064;49.636;12.164;2023-12-04T00:59:58;-8.10;90.89
68248;SHT30;55064;49.636;12.164;2023-12-04T01:02:24;-8.10;91.91
68248;SHT30;55064;49.636;12.164;2023-12-04T01:04:49;-8.02;91.86
68248;SHT30;55064;49.636;12.164;2023-12-04T01:07:15;-8.04;91.52
68248;SHT30;55064;49.636;12.164;2023-12-04T01:09:40;-8.07;91.47
68248;SHT30;55064;49.636;12.164;2023-12-04T01:12:06;-8.12;91.41
68248;SHT30;55064;49.636;12.164;2023-12-04T01:14:31;-8.31;92.45
68248;SHT30;55064;49.636;12.164;2023-12-04T01:16:58;-8.31;92.94
68248;SHT30;55064;49.636;12.164;2023-12-04T01:19:23;-8.31;93.20
68248;SHT30;55064;49.636;12.164;2023-12-04T01:21:48;-8.29;93.05
68248;SHT30;55064;49.636;12.164;2023-12-04T01:24:15;-8.32;92.73
68248;SHT30;55064;49.636;12.164;2023-12-04T01:26:40;-8.33;92.69
68248;SHT30;55064;49.636;12.164;2023-12-04T01:29:06;-8.31;92.31
68248;SHT30;55064;49.636;12.164;2023-12-04T01:31:31;-8.25;92.46
68248;SHT30;55064;49.636;12.164;2023-12-04T01:33:56;-8.28;91.90
68248;SHT30;55064;49.636;12.164;2023-12-04T01:36:22;-8.25;91.92
68248;SHT30;55064;49.636;12.164;2023-12-04T01:38:47;-8.26;91.73
68248;SHT30;55064;49.636;12.164;2023-12-04T01:41:13;-8.31;91.45
68248;SHT30;55064;49.636;12.164;2023-12-04T01:43:38;-8.36;90.01
68248;SHT30;55064;49.636;12.164;2023-12-04T01:46:04;-8.60;89.79
68248;SHT30;55064;49.636;12.164;2023-12-04T01:48:31;-8.73;90.76
68248;SHT30;55064;49.636;12.164;2023-12-04T01:50:57;-8.73;92.50
68248;SHT30;55064;49.636;12.164;2023-12-04T01:53:24;-8.70;92.77
68248;SHT30;55064;49.636;12.164;2023-12-04T01:55:50;-8.60;92.78
68248;SHT30;55064;49.636;12.164;2023-12-04T01:58:16;-8.60;92.38
68248;SHT30;55064;49.636;12.164;2023-12-04T02:00:42;-8.64;91.97
68248;SHT30;55064;49.636;12.164;2023-12-04T02:03:07;-8.54;91.27
68248;SHT30;55064;49.636;12.164;2023-12-04T02:05:34;-8.76;89.19
68248;SHT30;55064;49.636;12.164;2023-12-04T02:08:00;-9.01;88.85
68248;SHT30;55064;49.636;12.164;2023-12-04T02:10:26;-9.53;89.75
68248;SHT30;55064;49.636;12.164;2023-12-04T02:12:51;-9.54;91.55
68248;SHT30;55064;49.636;12.164;2023-12-04T02:15:17;-9.42;92.98
68248;SHT30;55064;49.636;12.164;2023-12-04T02:17:45;-9.31;92.65
68248;SHT30;55064;49.636;12.164;2023-12-04T02:20:14;-9.18;92.73
68248;SHT30;55064;49.636;12.164;2023-12-04T02:22:40;-9.08;92.48
68248;SHT30;55064;49.636;12.164;2023-12-04T02:25:06;-9.07;92.18
68248;SHT30;55064;49.636;12.164;2023-12-04T02:27:47;-9.09;91.82
68248;SHT30;55064;49.636;12.164;2023-12-04T02:30:17;-9.00;92.09
68248;SHT30;55064;49.636;12.164;2023-12-04T02:32:45;-9.01;91.53
68248;SHT30;55064;49.636;12.164;2023-12-04T02:35:12;-9.16;91.69
68248;SHT30;55064;49.636;12.164;2023-12-04T02:37:39;-9.11;92.62
68248;SHT30;55064;49.636;12.164;2023-12-04T02:40:06;-9.00;92.58
68248;SHT30;55064;49.636;12.164;2023-12-04T02:42:32;-8.94;92.62
68248;SHT30;55064;49.636;12.164;2023-12-04T02:44:57;-8.88;92.43
68248;SHT30;55064;49.636;12.164;2023-12-04T02:47:23;-8.84;92.13
68248;SHT30;55064;49.636;12.164;2023-12-04T02:49:48;-8.93;91.53
68248;SHT30;55064;49.636;12.164;2023-12-04T02:52:14;-8.97;91.84
68248;SHT30;55064;49.636;12.164;2023-12-04T02:54:39;-8.98;92.23
68248;SHT30;55064;49.636;12.164;2023-12-04T02:57:04;-8.90;92.56
68248;SHT30;55064;49.636;12.164;2023-12-04T02:59:30;-8.88;92.17
68248;SHT30;55064;49.636;12.164;2023-12-04T03:01:55;-8.95;92.51
68248;SHT30;55064;49.636;12.164;2023-12-04T03:04:20;-8.87;92.32
68248;SHT30;55064;49.636;12.164;2023-12-04T03:06:46;-8.93;92.23
68248;SHT30;55064;49.636;12.164;2023-12-04T03:09:11;-8.90;92.28
68248;SHT30;55064;49.636;12.164;2023-12-04T03:11:40;-8.86;92.26
68248;SHT30;55064;49.636;12.164;2023-12-04T03:14:06;-8.77;91.96
68248;SHT30;55064;49.636;12.164;2023-12-04T03:16:31;-8.77;91.56
68248;SHT30;55064;49.636;12.164;2023-12-04T03:18:57;-8.80;91.83
68248;SHT30;55064;49.636;12.164;2023-12-04T03:21:22;-8.79;91.77
68248;SHT30;55064;49.636;12.164;2023-12-04T03:23:48;-8.77;91.66
68248;SHT30;55064;49.636;12.164;2023-12-04T03:26:13;-8.80;91.40
68248;SHT30;55064;49.636;12.164;2023-12-04T03:28:39;-8.86;91.41
68248;SHT30;55064;49.636;12.164;2023-12-04T03:31:05;-8.90;91.02
68248;SHT30;55064;49.636;12.164;2023-12-04T03:33:31;-8.98;90.93
68248;SHT30;55064;49.636;12.164;2023-12-04T03:35:56;-9.08;91.44
68248;SHT30;55064;49.636;12.164;2023-12-04T03:38:21;-9.12;92.79
68248;SHT30;55064;49.636;12.164;2023-12-04T03:40:47;-9.12;92.81
68248;SHT30;55064;49.636;12.164;2023-12-04T03:43:12;-9.07;92.95
68248;SHT30;55064;49.636;12.164;2023-12-04T03:45:37;-9.01;92.74
68248;SHT30;55064;49.636;12.164;2023-12-04T03:48:03;-9.01;92.96
68248;SHT30;55064;49.636;12.164;2023-12-04T03:50:28;-8.97;92.83
68248;SHT30;55064;49.636;12.164;2023-12-04T03:52:53;-8.95;92.91
68248;SHT30;55064;49.636;12.164;2023-12-04T03:55:19;-8.97;92.52
68248;SHT30;55064;49.636;12.164;2023-12-04T03:57:45;-8.91;92.46
68248;SHT30;55064;49.636;12.164;2023-12-04T04:00:11;-8.88;92.01
68248;SHT30;55064;49.636;12.164;2023-12-04T04:02:38;-9.04;91.18
68248;SHT30;55064;49.636;12.164;2023-12-04T04:05:04;-9.01;92.27
68248;SHT30;55064;49.636;12.164;2023-12-04T04:07:30;-9.00;92.56
68248;SHT30;55064;49.636;12.164;2023-12-04T04:09:55;-9.00;92.14
68248;SHT30;55064;49.636;12.164;2023-12-04T04:12:20;-8.98;92.12
68248;SHT30;55064;49.636;12.164;2023-12-04T04:14:46;-8.98;91.99
68248;SHT30;55064;49.636;12.164;2023-12-04T04:17:11;-9.00;91.90
68248;SHT30;55064;49.636;12.164;2023-12-04T04:19:37;-9.04;91.92
68248;SHT30;55064;49.636;12.164;2023-12-04T04:22:02;-8.97;91.73
68248;SHT30;55064;49.636;12.164;2023-12-04T04:24:28;-9.04;91.34
68248;SHT30;55064;49.636;12.164;2023-12-04T04:26:53;-9.07;91.65
68248;SHT30;55064;49.636;12.164;2023-12-04T04:29:19;-9.12;91.18
68248;SHT30;55064;49.636;12.164;2023-12-04T04:31:44;-9.16;91.51
68248;SHT30;55064;49.636;12.164;2023-12-04T04:34:09;-9.18;91.84
68248;SHT30;55064;49.636;12.164;2023-12-04T04:36:35;-9.12;92.12
68248;SHT30;55064;49.636;12.164;2023-12-04T04:39:01;-9.12;92.13
68248;SHT30;55064;49.636;12.164;2023-12-04T04:41:26;-9.08;91.66
68248;SHT30;55064;49.636;12.164;2023-12-04T04:43:52;-9.12;90.85
68248;SHT30;55064;49.636;12.164;2023-12-04T04:46:18;-9.15;91.42
68248;SHT30;55064;49.636;12.164;2023-12-04T04:48:43;-9.15;91.82
68248;SHT30;55064;49.636;12.164;2023-12-04T04:51:09;-9.12;91.83
68248;SHT30;55064;49.636;12.164;2023-12-04T04:53:34;-9.08;91.69
68248;SHT30;55064;49.636;12.164;2023-12-04T04:55:59;-9.14;91.63
68248;SHT30;55064;49.636;12.164;2023-12-04T04:58:25;-9.11;91.52
68248;SHT30;55064;49.636;12.164;2023-12-04T05:00:50;-9.04;90.98
68248;SHT30;55064;49.636;12.164;2023-12-04T05:03:16;-9.08;90.97
68248;SHT30;55064;49.636;12.164;2023-12-04T05:05:41;-9.12;91.19
68248;SHT30;55064;49.636;12.164;2023-12-04T05:08:06;-9.09;91.33
68248;SHT30;55064;49.636;12.164;2023-12-04T05:10:32;-9.09;91.06
68248;SHT30;55064;49.636;12.164;2023-12-04T05:12:57;-9.11;91.20
68248;SHT30;55064;49.636;12.164;2023-12-04T05:15:22;-9.15;91.92
68248;SHT30;55064;49.636;12.164;2023-12-04T05:17:48;-9.14;92.37
68248;SHT30;55064;49.636;12.164;2023-12-04T05:20:13;-9.14;92.11
68248;SHT30;55064;49.636;12.164;2023-12-04T05:22:39;-9.11;91.97
68248;SHT30;55064;49.636;12.164;2023-12-04T05:25:05;-9.12;91.98
68248;SHT30;55064;49.636;12.164;2023-12-04T05:27:31;-9.08;92.00
68248;SHT30;55064;49.636;12.164;2023-12-04T05:29:56;-9.11;91.46
68248;SHT30;55064;49.636;12.164;2023-12-04T05:32:21;-9.11;91.83
68248;SHT30;55064;49.636;12.164;2023-12-04T05:34:47;-9.05;91.82
68248;SHT30;55064;49.636;12.164;2023-12-04T05:37:12;-9.09;91.90
68248;SHT30;55064;49.636;12.164;2023-12-04T05:39:37;-9.05;92.01
68248;SHT30;55064;49.636;12.164;2023-12-04T05:42:03;-9.00;91.72
68248;SHT30;55064;49.636;12.164;2023-12-04T05:44:28;-9.04;91.40
68248;SHT30;55064;49.636;12.164;2023-12-04T05:46:54;-9.05;90.59
68248;SHT30;55064;49.636;12.164;2023-12-04T05:49:19;-9.09;90.84
68248;SHT30;55064;49.636;12.164;2023-12-04T05:51:45;-9.19;91.31
68248;SHT30;55064;49.636;12.164;2023-12-04T05:54:10;-9.18;91.63
68248;SHT30;55064;49.636;12.164;2023-12-04T05:56:35;-9.15;91.81
68248;SHT30;55064;49.636;12.164;2023-12-04T05:59:01;-9.09;91.61
68248;SHT30;55064;49.636;12.164;2023-12-04T06:01:27;-9.09;91.67
68248;SHT30;55064;49.636;12.164;2023-12-04T06:03:52;-9.09;91.34
68248;SHT30;55064;49.636;12.164;2023-12-04T06:06:17;-9.11;91.20
68248;SHT30;55064;49.636;12.164;2023-12-04T06:08:43;-9.16;91.28
68248;SHT30;55064;49.636;12.164;2023-12-04T06:11:08;-9.18;91.76
68248;SHT30;55064;49.636;12.164;2023-12-04T06:13:33;-9.16;91.86
68248;SHT30;55064;49.636;12.164;2023-12-04T06:15:59;-9.25;91.75
68248;SHT30;55064;49.636;12.164;2023-12-04T06:18:24;-9.22;91.50
68248;SHT30;55064;49.636;12.164;2023-12-04T06:20:49;-9.19;91.65
68248;SHT30;55064;49.636;12.164;2023-12-04T06:23:15;-9.18;91.52
68248;SHT30;55064;49.636;12.164;2023-12-04T06:25:41;-9.19;91.21
68248;SHT30;55064;49.636;12.164;2023-12-04T06:28:07;-9.26;91.40
68248;SHT30;55064;49.636;12.164;2023-12-04T06:30:33;-9.28;91.44
68248;SHT30;55064;49.636;12.164;2023-12-04T06:32:59;-9.26;91.02
68248;SHT30;55064;49.636;12.164;2023-12-04T06:35:24;-9.26;92.11
68248;SHT30;55064;49.636;12.164;2023-12-04T06:37:53;-9.19;92.42
68248;SHT30;55064;49.636;12.164;2023-12-04T06:40:19;-9.24;92.16
68248;SHT30;55064;49.636;12.164;2023-12-04T06:42:44;-9.14;91.63
68248;SHT30;55064;49.636;12.164;2023-12-04T06:45:10;-9.09;91.03
68248;SHT30;55064;49.636;12.164;2023-12-04T06:47:37;-9.14;91.07
68248;SHT30;55064;49.636;12.164;2023-12-04T06:50:05;-9.21;90.93
68248;SHT30;55064;49.636;12.164;2023-12-04T06:52:31;-9.22;90.97
68248;SHT30;55064;49.636;12.164;2023-12-04T06:54:56;-9.24;91.45
68248;SHT30;55064;49.636;12.164;2023-12-04T06:57:21;-9.24;91.38
68248;SHT30;55064;49.636;12.164;2023-12-04T06:59:50;-9.22;91.41
68248;SHT30;55064;49.636;12.164;2023-12-04T07:02:15;-9.19;91.82
68248;SHT30;55064;49.636;12.164;2023-12-04T07:04:41;-9.16;92.21
68248;SHT30;55064;49.636;12.164;2023-12-04T07:07:06;-9.04;92.51
68248;SHT30;55064;49.636;12.164;2023-12-04T07:09:32;-8.93;92.46
68248;SHT30;55064;49.636;12.164;2023-12-04T07:11:58;-8.88;92.12
68248;SHT30;55064;49.636;12.164;2023-12-04T07:14:23;-8.81;91.91
68248;SHT30;55064;49.636;12.164;2023-12-04T07:16:49;-8.76;91.59
68248;SHT30;55064;49.636;12.164;2023-12-04T07:19:14;-8.74;91.45
68248;SHT30;55064;49.636;12.164;2023-12-04T07:21:41;-8.79;91.38
68248;SHT30;55064;49.636;12.164;2023-12-04T07:24:07;-8.79;91.77
68248;SHT30;55064;49.636;12.164;2023-12-04T07:26:33;-8.73;91.55
68248;SHT30;55064;49.636;12.164;2023-12-04T07:28:59;-8.69;91.83
68248;SHT30;55064;49.636;12.164;2023-12-04T07:31:24;-8.67;91.78
68248;SHT30;55064;49.636;12.164;2023-12-04T07:33:55;-8.64;91.89
68248;SHT30;55064;49.636;12.164;2023-12-04T07:36:21;-8.50;91.48
68248;SHT30;55064;49.636;12.164;2023-12-04T07:38:46;-8.69;91.16
68248;SHT30;55064;49.636;12.164;2023-12-04T07:41:12;-8.90;91.74
68248;SHT30;55064;49.636;12.164;2023-12-04T07:43:39;-8.84;92.19
68248;SHT30;55064;49.636;12.164;2023-12-04T07:46:04;-8.77;92.45
68248;SHT30;55064;49.636;12.164;2023-12-04T07:48:30;-8.63;92.55
68248;SHT30;55064;49.636;12.164;2023-12-04T07:50:56;-8.54;92.51
68248;SHT30;55064;49.636;12.164;2023-12-04T07:53:21;-8.45;92.44
68248;SHT30;55064;49.636;12.164;2023-12-04T07:55:48;-8.36;92.03
68248;SHT30;55064;49.636;12.164;2023-12-04T07:58:14;-8.29;91.57
68248;SHT30;55064;49.636;12.164;2023-12-04T08:00:40;-8.22;91.32
68248;SHT30;55064;49.636;12.164;2023-12-04T08:03:05;-8.21;91.71
68248;SHT30;55064;49.636;12.164;2023-12-04T08:05:32;-8.28;91.75
68248;SHT30;55064;49.636;12.164;2023-12-04T08:07:57;-8.25;91.77
68248;SHT30;55064;49.636;12.164;2023-12-04T08:10:23;-8.12;91.54
68248;SHT30;55064;49.636;12.164;2023-12-04T08:12:48;-8.07;91.27
68248;SHT30;55064;49.636;12.164;2023-12-04T08:15:13;-7.95;90.72
68248;SHT30;55064;49.636;12.164;2023-12-04T08:17:39;-7.83;90.06
68248;SHT30;55064;49.636;12.164;2023-12-04T08:20:05;-7.72;90.08
68248;SHT30;55064;49.636;12.164;2023-12-04T08:22:31;-7.63;90.02
68248;SHT30;55064;49.636;12.164;2023-12-04T08:24:57;-7.63;89.83
68248;SHT30;55064;49.636;12.164;2023-12-04T08:27:23;-7.52;89.67
68248;SHT30;55064;49.636;12.164;2023-12-04T08:29:49;-7.47;89.61
68248;SHT30;55064;49.636;12.164;2023-12-04T08:32:15;-7.45;89.80
68248;SHT30;55064;49.636;12.164;2023-12-04T08:34:40;-7.32;89.46
68248;SHT30;55064;49.636;12.164;2023-12-04T08:37:06;-7.29;89.24
68248;SHT30;55064;49.636;12.164;2023-12-04T08:39:31;-7.25;89.39
68248;SHT30;55064;49.636;12.164;2023-12-04T08:41:56;-7.15;88.60
68248;SHT30;55064;49.636;12.164;2023-12-04T08:44:22;-7.40;88.98
68248;SHT30;55064;49.636;12.164;2023-12-04T08:46:49;-7.29;89.23
68248;SHT30;55064;49.636;12.164;2023-12-04T08:49:14;-7.17;89.78
68248;SHT30;55064;49.636;12.164;2023-12-04T08:51:39;-7.17;89.82
68248;SHT30;55064;49.636;12.164;2023-12-04T08:54:05;-7.00;89.41
68248;SHT30;55064;49.636;12.164;2023-12-04T08:56:30;-6.87;89.43
68248;SHT30;55064;49.636;12.164;2023-12-04T08:58:55;-6.77;88.80
68248;SHT30;55064;49.636;12.164;2023-12-04T09:01:22;-6.73;88.66
68248;SHT30;55064;49.636;12.164;2023-12-04T09:03:48;-6.80;88.86
68248;SHT30;55064;49.636;12.164;2023-12-04T09:06:13;-6.69;88.83
68248;SHT30;55064;49.636;12.164;2023-12-04T09:08:40;-6.60;88.66
68248;SHT30;55064;49.636;12.164;2023-12-04T09:11:06;-6.60;88.45
68248;SHT30;55064;49.636;12.164;2023-12-04T09:13:31;-6.59;88.45
68248;SHT30;55064;49.636;12.164;2023-12-04T09:15:57;-6.52;88.57
68248;SHT30;55064;49.636;12.164;2023-12-04T09:18:23;-6.42;88.43
68248;SHT30;55064;49.636;12.164;2023-12-04T09:20:48;-6.38;88.67
68248;SHT30;55064;49.636;12.164;2023-12-04T09:23:14;-6.28;88.31
68248;SHT30;55064;49.636;12.164;2023-12-04T09:25:39;-6.34;88.23
68248;SHT30;55064;49.636;12.164;2023-12-04T09:28:04;-6.25;87.50
68248;SHT30;55064;49.636;12.164;2023-12-04T09:30:30;-6.25;87.13
68248;SHT30;55064;49.636;12.164;2023-12-04T09:32:55;-6.39;87.36
68248;SHT30;55064;49.636;12.164;2023-12-04T09:35:21;-6.58;88.15
68248;SHT30;55064;49.636;12.164;2023-12-04T09:37:46;-6.42;88.47
68248;SHT30;55064;49.636;12.164;2023-12-04T09:40:14;-6.26;88.85
68248;SHT30;55064;49.636;12.164;2023-12-04T09:42:39;-6.11;88.50
68248;SHT30;55064;49.636;12.164;2023-12-04T09:45:05;-5.97;87.72
68248;SHT30;55064;49.636;12.164;2023-12-04T09:47:32;-5.90;87.74
68248;SHT30;55064;49.636;12.164;2023-12-04T09:49:58;-5.79;87.53
68248;SHT30;55064;49.636;12.164;2023-12-04T09:52:24;-5.66;87.15
68248;SHT30;55064;49.636;12.164;2023-12-04T09:54:51;-5.52;86.41
68248;SHT30;55064;49.636;12.164;2023-12-04T09:57:16;-5.60;86.73
68248;SHT30;55064;49.636;12.164;2023-12-04T09:59:44;-5.47;86.78
68248;SHT30;55064;49.636;12.164;2023-12-04T10:02:09;-5.48;86.62
68248;SHT30;55064;49.636;12.164;2023-12-04T10:04:35;-5.48;86.60
68248;SHT30;55064;49.636;12.164;2023-12-04T10:07:01;-5.39;86.46
68248;SHT30;55064;49.636;12.164;2023-12-04T10:09:27;-5.28;86.14
68248;SHT30;55064;49.636;12.164;2023-12-04T10:11:55;-5.24;85.67
68248;SHT30;55064;49.636;12.164;2023-12-04T10:14:21;-5.25;85.59
68248;SHT30;55064;49.636;12.164;2023-12-04T10:16:48;-5.10;85.17
68248;SHT30;55064;49.636;12.164;2023-12-04T10:21:43;-5.28;85.00
68248;SHT30;55064;49.636;12.164;2023-12-04T10:24:10;-5.11;85.36
68248;SHT30;55064;49.636;12.164;2023-12-04T10:26:36;-5.05;85.30
68248;SHT30;55064;49.636;12.164;2023-12-04T10:29:03;-4.94;85.44
68248;SHT30;55064;49.636;12.164;2023-12-04T10:31:35;-4.86;85.13
68248;SHT30;55064;49.636;12.164;2023-12-04T10:34:02;-4.89;85.23
68248;SHT30;55064;49.636;12.164;2023-12-04T10:36:28;-5.01;86.01
68248;SHT30;55064;49.636;12.164;2023-12-04T10:38:59;-5.01;86.52
68248;SHT30;55064;49.636;12.164;2023-12-04T10:41:25;-4.80;85.89
68248;SHT30;55064;49.636;12.164;2023-12-04T10:43:51;-4.75;85.44
68248;SHT30;55064;49.636;12.164;2023-12-04T10:46:16;-4.66;85.20
68248;SHT30;55064;49.636;12.164;2023-12-04T10:48:45;-4.58;84.83
68248;SHT30;55064;49.636;12.164;2023-12-04T10:51:12;-4.58;85.08
68248;SHT30;55064;49.636;12.164;2023-12-04T10:53:38;-4.54;84.67
68248;SHT30;55064;49.636;12.164;2023-12-04T10:56:07;-4.46;84.88
68248;SHT30;55064;49.636;12.164;2023-12-04T10:58:36;-4.44;85.04
68248;SHT30;55064;49.636;12.164;2023-12-04T11:01:06;-4.32;84.26
68248;SHT30;55064;49.636;12.164;2023-12-04T11:03:53;-4.34;84.77
68248;SHT30;55064;49.636;12.164;2023-12-04T11:06:21;-4.51;85.06
68248;SHT30;55064;49.636;12.164;2023-12-04T11:08:49;-4.44;85.59
68248;SHT30;55064;49.636;12.164;2023-12-04T11:11:35;-4.08;85.07
68248;SHT30;55064;49.636;12.164;2023-12-04T11:14:04;-4.17;85.32
68248;SHT30;55064;49.636;12.164;2023-12-04T11:16:34;-3.93;84.53
68248;SHT30;55064;49.636;12.164;2023-12-04T11:19:14;-3.82;84.60
68248;SHT30;55064;49.636;12.164;2023-12-04T11:21:40;-3.66;84.23
68248;SHT30;55064;49.636;12.164;2023-12-04T11:24:06;-3.41;83.77
68248;SHT30;55064;49.636;12.164;2023-12-04T11:26:33;-3.28;82.89
68248;SHT30;55064;49.636;12.164;2023-12-04T11:28:59;-3.34;81.78
68248;SHT30;55064;49.636;12.164;2023-12-04T11:31:25;-3.45;82.42
68248;SHT30;55064;49.636;12.164;2023-12-04T11:33:50;-3.45;82.92
68248;SHT30;55064;49.636;12.164;2023-12-04T11:36:16;-3.68;83.31
68248;SHT30;55064;49.636;12.164;2023-12-04T11:38:46;-3.59;84.30
68248;SHT30;55064;49.636;12.164;2023-12-04T11:41:18;-3.56;83.90
68248;SHT30;55064;49.636;12.164;2023-12-04T11:43:45;-3.96;84.71
68248;SHT30;55064;49.636;12.164;2023-12-04T11:46:11;-3.94;85.06
68248;SHT30;55064;49.636;12.164;2023-12-04T11:48:37;-3.83;85.34
68248;SHT30;55064;49.636;12.164;2023-12-04T11:51:04;-3.80;84.77
68248;SHT30;55064;49.636;12.164;2023-12-04T11:53:30;-3.87;84.52
68248;SHT30;55064;49.636;12.164;2023-12-04T11:55:55;-3.85;83.51
68248;SHT30;55064;49.636;12.164;2023-12-04T11:58:23;-3.93;83.91
68248;SHT30;55064;49.636;12.164;2023-12-04T12:00:49;-3.96;84.36
68248;SHT30;55064;49.636;12.164;2023-12-04T12:03:15;-4.03;84.26
68248;SHT30;55064;49.636;12.164;2023-12-04T12:05:40;-4.06;84.97
68248;SHT30;55064;49.636;12.164;2023-12-04T12:08:07;-3.99;85.24
68248;SHT30;55064;49.636;12.164;2023-12-04T12:10:33;-4.01;84.75
68248;SHT30;55064;49.636;12.164;2023-12-04T12:12:59;-3.91;84.88
68248;SHT30;55064;49.636;12.164;2023-12-04T12:15:25;-3.91;84.98
68248;SHT30;55064;49.636;12.164;2023-12-04T12:17:51;-4.07;85.36
68248;SHT30;55064;49.636;12.164;2023-12-04T12:20:17;-4.06;85.18
68248;SHT30;55064;49.636;12.164;2023-12-04T12:22:43;-4.08;85.08
68248;SHT30;55064;49.636;12.164;2023-12-04T12:25:11;-3.97;85.85
68248;SHT30;55064;49.636;12.164;2023-12-04T12:27:37;-4.08;85.26
68248;SHT30;55064;49.636;12.164;2023-12-04T12:30:04;-3.97;85.28
68248;SHT30;55064;49.636;12.164;2023-12-04T12:32:36;-3.89;84.79
68248;SHT30;55064;49.636;12.164;2023-12-04T12:40:10;-4.07;85.68
68248;SHT30;55064;49.636;12.164;2023-12-04T12:42:37;-4.22;85.62
68248;SHT30;55064;49.636;12.164;2023-12-04T12:45:11;-4.11;86.33
68248;SHT30;55064;49.636;12.164;2023-12-04T12:47:37;-4.04;86.84
68248;SHT30;55064;49.636;12.164;2023-12-04T12:50:03;-4.10;86.22
68248;SHT30;55064;49.636;12.164;2023-12-04T12:52:33;-4.14;86.63
68248;SHT30;55064;49.636;12.164;2023-12-04T12:54:59;-4.17;86.51
68248;SHT30;55064;49.636;12.164;2023-12-04T12:57:24;-4.20;86.52
68248;SHT30;55064;49.636;12.164;2023-12-04T12:59:50;-4.37;86.40
68248;SHT30;55064;49.636;12.164;2023-12-04T13:02:16;-4.20;86.41
68248;SHT30;55064;49.636;12.164;2023-12-04T13:04:42;-4.20;86.32
68248;SHT30;55064;49.636;12.164;2023-12-04T13:07:08;-4.32;86.72
68248;SHT30;55064;49.636;12.164;2023-12-04T13:09:34;-4.27;86.51
68248;SHT30;55064;49.636;12.164;2023-12-04T13:12:04;-4.28;86.88
68248;SHT30;55064;49.636;12.164;2023-12-04T13:14:30;-4.18;86.75
68248;SHT30;55064;49.636;12.164;2023-12-04T13:16:56;-4.22;86.82
68248;SHT30;55064;49.636;12.164;2023-12-04T13:19:24;-4.20;85.49
68248;SHT30;55064;49.636;12.164;2023-12-04T13:21:50;-4.37;86.12
68248;SHT30;55064;49.636;12.164;2023-12-04T13:24:16;-4.32;86.59
68248;SHT30;55064;49.636;12.164;2023-12-04T13:26:43;-4.28;86.61
68248;SHT30;55064;49.636;12.164;2023-12-04T13:29:08;-4.21;87.35
68248;SHT30;55064;49.636;12.164;2023-12-04T13:31:34;-4.13;86.79
68248;SHT30;55064;49.636;12.164;2023-12-04T13:34:00;-4.08;87.12
68248;SHT30;55064;49.636;12.164;2023-12-04T13:36:25;-4.11;87.45
68248;SHT30;55064;49.636;12.164;2023-12-04T13:38:52;-4.01;86.68
68248;SHT30;55064;49.636;12.164;2023-12-04T13:41:18;-4.04;87.30
68248;SHT30;55064;49.636;12.164;2023-12-04T13:44:02;-4.08;87.22
68248;SHT30;55064;49.636;12.164;2023-12-04T13:46:28;-4.14;86.85
68248;SHT30;55064;49.636;12.164;2023-12-04T13:48:55;-4.17;86.94
68248;SHT30;55064;49.636;12.164;2023-12-04T13:51:20;-4.13;87.06
68248;SHT30;55064;49.636;12.164;2023-12-04T13:53:46;-4.13;87.04
68248;SHT30;55064;49.636;12.164;2023-12-04T13:56:15;-4.03;86.09
68248;SHT30;55064;49.636;12.164;2023-12-04T13:58:47;-4.00;85.91
68248;SHT30;55064;49.636;12.164;2023-12-04T14:01:15;-4.06;86.58
68248;SHT30;55064;49.636;12.164;2023-12-04T14:03:47;-4.08;86.52
68248;SHT30;55064;49.636;12.164;2023-12-04T14:06:12;-4.01;86.75
68248;SHT30;55064;49.636;12.164;2023-12-04T14:08:38;-4.22;86.27
68248;SHT30;55064;49.636;12.164;2023-12-04T14:11:04;-4.21;86.63
68248;SHT30;55064;49.636;12.164;2023-12-04T14:13:33;-4.14;87.12
68248;SHT30;55064;49.636;12.164;2023-12-04T14:15:59;-4.20;86.39
68248;SHT30;55064;49.636;12.164;2023-12-04T14:21:13;-4.22;87.82
68248;SHT30;55064;49.636;12.164;2023-12-04T14:23:38;-4.15;87.59
68248;SHT30;55064;49.636;12.164;2023-12-04T14:26:04;-4.25;86.93
68248;SHT30;55064;49.636;12.164;2023-12-04T14:31:04;-4.20;87.54
68248;SHT30;55064;49.636;12.164;2023-12-04T14:33:31;-4.15;87.31
68248;SHT30;55064;49.636;12.164;2023-12-04T14:35:56;-4.10;87.60
68248;SHT30;55064;49.636;12.164;2023-12-04T14:38:21;-4.25;88.38
68248;SHT30;55064;49.636;12.164;2023-12-04T14:40:47;-4.27;87.28
68248;SHT30;55064;49.636;12.164;2023-12-04T14:43:13;-4.27;87.74
68248;SHT30;55064;49.636;12.164;2023-12-04T14:45:38;-4.27;87.25
68248;SHT30;55064;49.636;12.164;2023-12-04T14:48:04;-4.27;88.07
68248;SHT30;55064;49.636;12.164;2023-12-04T14:50:33;-4.27;87.48
68248;SHT30;55064;49.636;12.164;2023-12-04T14:52:58;-4.32;87.57
68248;SHT30;55064;49.636;12.164;2023-12-04T14:55:36;-4.34;88.11
68248;SHT30;55064;49.636;12.164;2023-12-04T14:58:20;-4.34;87.59
68248;SHT30;55064;49.636;12.164;2023-12-04T15:01:06;-4.31;88.32
68248;SHT30;55064;49.636;12.164;2023-12-04T15:03:50;-4.37;88.44
68248;SHT30;55064;49.636;12.164;2023-12-04T15:06:33;-4.29;87.62
68248;SHT30;55064;49.636;12.164;2023-12-04T15:09:11;-4.31;88.08
68248;SHT30;55064;49.636;12.164;2023-12-04T15:11:42;-4.32;88.58
68248;SHT30;55064;49.636;12.164;2023-12-04T15:14:26;-4.25;87.53
68248;SHT30;55064;49.636;12.164;2023-12-04T15:16:57;-4.40;87.67
68248;SHT30;55064;49.636;12.164;2023-12-04T15:19:42;-4.37;88.00
68248;SHT30;55064;49.636;12.164;2023-12-04T15:22:33;-4.45;89.01
68248;SHT30;55064;49.636;12.164;2023-12-04T15:24:59;-4.51;89.35